sensor_id;sensor_type;location;lat;lon;timestamp;P1;P2;P0
42002;PMS7003;27693;50.506;30.832;2022-07-18T00:00:33;2.40;1.20;0.80
42002;PMS7003;27693;50.506;30.832;2022-07-18T00:01:35;4.10;3.00;2.30
42002;PMS7003;27693;50.506;30.832;2022-07-18T00:02:38;4.20;3.10;3.00
42002;PMS7003;27693;50.506;30.832;2022-07-18T00:03:41;4.10;2.90;2.50
42002;PMS7003;27693;50.506;30.832;2022-07-18T00:04:44;3.40;3.30;2.90
42002;PMS7003;27693;50.506;30.832;2022-07-18T00:05:47;2.50;2.50;2.40
42002;PMS7003;27693;50.506;30.832;2022-07-18T00:06:49;3.40;3.40;3.00
42002;PMS7003;27693;50.506;30.832;2022-07-18T00:07:51;3.30;3.00;2.80
42002;PMS7003;27693;50.506;30.832;2022-07-18T00:08:53;3.70;3.70;2.90
42002;PMS7003;27693;50.506;30.832;2022-07-18T00:09:56;3.40;3.40;2.90
42002;PMS7003;27693;50.506;30.832;2022-07-18T00:10:58;3.60;2.80;2.70
42002;PMS7003;27693;50.506;30.832;2022-07-18T00:12:00;3.50;3.10;2.20
42002;PMS7003;27693;50.506;30.832;2022-07-18T00:13:02;3.30;2.60;2.50
42002;PMS7003;27693;50.506;30.832;2022-07-18T00:14:04;3.10;3.00;3.00
42002;PMS7003;27693;50.506;30.832;2022-07-18T00:15:07;2.90;2.60;2.10
42002;PMS7003;27693;50.506;30.832;2022-07-18T00:16:10;3.90;2.40;1.90
42002;PMS7003;27693;50.506;30.832;2022-07-18T00:17:12;2.80;2.50;2.50
42002;PMS7003;27693;50.506;30.832;2022-07-18T00:18:14;3.70;3.70;3.00
42002;PMS7003;27693;50.506;30.832;2022-07-18T00:19:16;4.20;3.60;2.80
42002;PMS7003;27693;50.506;30.832;2022-07-18T00:20:20;5.00;3.80;3.40
42002;PMS7003;27693;50.506;30.832;2022-07-18T00:21:23;3.10;3.10;2.70
42002;PMS7003;27693;50.506;30.832;2022-07-18T00:22:26;3.10;3.10;2.70
42002;PMS7003;27693;50.506;30.832;2022-07-18T00:23:28;3.60;3.40;3.00
42002;PMS7003;27693;50.506;30.832;2022-07-18T00:24:31;3.40;3.40;2.80
42002;PMS7003;27693;50.506;30.832;2022-07-18T00:25:33;3.00;3.00;3.00
42002;PMS7003;27693;50.506;30.832;2022-07-18T00:26:36;3.70;3.50;2.70
42002;PMS7003;27693;50.506;30.832;2022-07-18T00:27:40;4.10;4.10;3.40
42002;PMS7003;27693;50.506;30.832;2022-07-18T00:28:42;4.00;2.90;2.60
42002;PMS7003;27693;50.506;30.832;2022-07-18T00:29:44;3.40;2.80;2.50
42002;PMS7003;27693;50.506;30.832;2022-07-18T00:30:47;2.10;2.10;1.30
42002;PMS7003;27693;50.506;30.832;2022-07-18T00:31:49;3.20;3.20;2.90
42002;PMS7003;27693;50.506;30.832;2022-07-18T00:32:51;3.80;3.30;2.70
42002;PMS7003;27693;50.506;30.832;2022-07-18T00:33:55;3.90;2.70;2.50
42002;PMS7003;27693;50.506;30.832;2022-07-18T00:34:58;3.80;3.30;3.20
42002;PMS7003;27693;50.506;30.832;2022-07-18T00:36:00;3.50;3.50;2.70
42002;PMS7003;27693;50.506;30.832;2022-07-18T00:37:02;4.50;4.50;4.00
42002;PMS7003;27693;50.506;30.832;2022-07-18T00:38:05;4.10;4.10;3.20
42002;PMS7003;27693;50.506;30.832;2022-07-18T00:39:07;3.70;3.70;2.80
42002;PMS7003;27693;50.506;30.832;2022-07-18T00:40:10;3.27;3.27;2.64
42002;PMS7003;27693;50.506;30.832;2022-07-18T00:41:15;3.40;2.70;2.70
42002;PMS7003;27693;50.506;30.832;2022-07-18T00:42:19;3.80;3.50;2.90
42002;PMS7003;27693;50.506;30.832;2022-07-18T00:43:22;2.00;1.60;1.00
42002;PMS7003;27693;50.506;30.832;2022-07-18T00:44:25;4.60;3.70;2.90
42002;PMS7003;27693;50.506;30.832;2022-07-18T00:45:29;4.10;3.80;3.00
42002;PMS7003;27693;50.506;30.832;2022-07-18T00:46:33;3.00;3.00;2.50
42002;PMS7003;27693;50.506;30.832;2022-07-18T00:47:36;3.90;3.60;3.20
42002;PMS7003;27693;50.506;30.832;2022-07-18T00:48:40;3.50;3.50;2.90
42002;PMS7003;27693;50.506;30.832;2022-07-18T00:49:43;4.10;4.10;3.50
42002;PMS7003;27693;50.506;30.832;2022-07-18T00:50:46;4.00;4.00;3.80
42002;PMS7003;27693;50.506;30.832;2022-07-18T00:51:48;5.50;4.60;3.80
42002;PMS7003;27693;50.506;30.832;2022-07-18T00:52:51;4.30;4.00;3.70
42002;PMS7003;27693;50.506;30.832;2022-07-18T00:53:54;4.00;4.00;3.10
42002;PMS7003;27693;50.506;30.832;2022-07-18T00:54:56;5.30;4.40;3.90
42002;PMS7003;27693;50.506;30.832;2022-07-18T00:55:58;2.30;1.20;0.70
42002;PMS7003;27693;50.506;30.832;2022-07-18T00:57:03;3.80;3.80;3.70
42002;PMS7003;27693;50.506;30.832;2022-07-18T00:58:05;4.60;4.50;3.90
42002;PMS7003;27693;50.506;30.832;2022-07-18T00:59:10;7.10;5.30;4.40
42002;PMS7003;27693;50.506;30.832;2022-07-18T01:00:13;5.20;5.20;4.40
42002;PMS7003;27693;50.506;30.832;2022-07-18T01:01:17;7.20;5.10;4.60
42002;PMS7003;27693;50.506;30.832;2022-07-18T01:02:19;3.60;3.50;2.90
42002;PMS7003;27693;50.506;30.832;2022-07-18T01:03:21;4.80;4.70;4.10
42002;PMS7003;27693;50.506;30.832;2022-07-18T01:04:24;3.20;3.20;3.00
42002;PMS7003;27693;50.506;30.832;2022-07-18T01:05:28;2.90;2.90;2.90
42002;PMS7003;27693;50.506;30.832;2022-07-18T01:06:30;4.09;4.00;3.55
42002;PMS7003;27693;50.506;30.832;2022-07-18T01:07:34;5.40;5.10;4.90
42002;PMS7003;27693;50.506;30.832;2022-07-18T01:08:37;5.20;5.00;4.80
42002;PMS7003;27693;50.506;30.832;2022-07-18T01:09:40;5.20;3.50;3.50
42002;PMS7003;27693;50.506;30.832;2022-07-18T01:10:42;6.80;5.00;4.20
42002;PMS7003;27693;50.506;30.832;2022-07-18T01:11:45;3.70;3.70;3.20
42002;PMS7003;27693;50.506;30.832;2022-07-18T01:12:49;6.00;5.50;4.00
42002;PMS7003;27693;50.506;30.832;2022-07-18T01:13:51;3.50;3.40;2.60
42002;PMS7003;27693;50.506;30.832;2022-07-18T01:14:53;5.50;4.90;4.50
42002;PMS7003;27693;50.506;30.832;2022-07-18T01:15:55;4.60;4.60;4.00
42002;PMS7003;27693;50.506;30.832;2022-07-18T01:16:58;4.30;3.20;2.20
42002;PMS7003;27693;50.506;30.832;2022-07-18T01:17:59;5.30;5.30;4.80
42002;PMS7003;27693;50.506;30.832;2022-07-18T01:19:02;4.10;3.90;3.10
42002;PMS7003;27693;50.506;30.832;2022-07-18T01:20:05;5.50;5.10;4.10
42002;PMS7003;27693;50.506;30.832;2022-07-18T01:21:09;4.80;4.70;4.20
42002;PMS7003;27693;50.506;30.832;2022-07-18T01:22:11;7.20;5.00;4.00
42002;PMS7003;27693;50.506;30.832;2022-07-18T01:23:15;4.70;3.50;3.00
42002;PMS7003;27693;50.506;30.832;2022-07-18T01:24:17;4.50;3.40;3.10
42002;PMS7003;27693;50.506;30.832;2022-07-18T01:25:19;5.50;5.50;4.70
42002;PMS7003;27693;50.506;30.832;2022-07-18T01:26:22;4.90;4.50;3.80
42002;PMS7003;27693;50.506;30.832;2022-07-18T01:27:26;4.50;3.70;3.00
42002;PMS7003;27693;50.506;30.832;2022-07-18T01:28:29;4.00;4.00;3.50
42002;PMS7003;27693;50.506;30.832;2022-07-18T01:29:31;4.80;4.00;3.60
42002;PMS7003;27693;50.506;30.832;2022-07-18T01:30:34;5.27;5.27;4.18
42002;PMS7003;27693;50.506;30.832;2022-07-18T01:31:36;4.00;3.40;3.00
42002;PMS7003;27693;50.506;30.832;2022-07-18T01:32:38;6.70;4.80;3.90
42002;PMS7003;27693;50.506;30.832;2022-07-18T01:33:40;5.20;4.40;3.70
42002;PMS7003;27693;50.506;30.832;2022-07-18T01:34:44;5.00;4.20;3.50
42002;PMS7003;27693;50.506;30.832;2022-07-18T01:35:47;3.70;3.20;2.80
42002;PMS7003;27693;50.506;30.832;2022-07-18T01:36:49;3.90;3.80;3.20
42002;PMS7003;27693;50.506;30.832;2022-07-18T01:37:57;6.70;5.70;5.00
42002;PMS7003;27693;50.506;30.832;2022-07-18T01:38:57;5.80;5.20;4.90
42002;PMS7003;27693;50.506;30.832;2022-07-18T01:40:00;5.80;5.20;4.40
42002;PMS7003;27693;50.506;30.832;2022-07-18T01:41:02;6.00;5.20;4.50
42002;PMS7003;27693;50.506;30.832;2022-07-18T01:42:06;6.80;5.30;4.50
42002;PMS7003;27693;50.506;30.832;2022-07-18T01:43:09;4.20;4.20;3.90
42002;PMS7003;27693;50.506;30.832;2022-07-18T01:44:11;4.60;4.00;3.10
42002;PMS7003;27693;50.506;30.832;2022-07-18T01:45:13;6.20;4.60;4.40
42002;PMS7003;27693;50.506;30.832;2022-07-18T01:46:16;5.18;4.64;4.09
42002;PMS7003;27693;50.506;30.832;2022-07-18T01:47:18;4.00;4.00;3.30
42002;PMS7003;27693;50.506;30.832;2022-07-18T01:48:21;3.50;3.50;3.00
42002;PMS7003;27693;50.506;30.832;2022-07-18T01:49:23;5.80;5.00;4.30
42002;PMS7003;27693;50.506;30.832;2022-07-18T01:50:28;6.50;4.50;4.00
42002;PMS7003;27693;50.506;30.832;2022-07-18T01:51:30;4.60;4.20;3.50
42002;PMS7003;27693;50.506;30.832;2022-07-18T01:52:32;5.90;3.70;3.60
42002;PMS7003;27693;50.506;30.832;2022-07-18T01:53:34;5.80;5.20;4.70
42002;PMS7003;27693;50.506;30.832;2022-07-18T01:54:37;5.00;5.00;4.40
42002;PMS7003;27693;50.506;30.832;2022-07-18T01:55:39;5.00;4.70;3.70
42002;PMS7003;27693;50.506;30.832;2022-07-18T01:56:42;5.40;4.50;4.00
42002;PMS7003;27693;50.506;30.832;2022-07-18T01:57:44;5.00;5.00;4.20
42002;PMS7003;27693;50.506;30.832;2022-07-18T01:58:46;4.60;4.40;3.80
42002;PMS7003;27693;50.506;30.832;2022-07-18T01:59:48;4.80;4.60;4.30
42002;PMS7003;27693;50.506;30.832;2022-07-18T02:00:51;4.55;4.55;4.55
42002;PMS7003;27693;50.506;30.832;2022-07-18T02:01:53;4.00;4.00;3.50
42002;PMS7003;27693;50.506;30.832;2022-07-18T02:02:56;6.20;6.20;5.30
42002;PMS7003;27693;50.506;30.832;2022-07-18T02:03:58;5.80;4.60;3.90
42002;PMS7003;27693;50.506;30.832;2022-07-18T02:05:00;7.00;5.70;4.80
42002;PMS7003;27693;50.506;30.832;2022-07-18T02:06:03;6.50;5.90;5.10
42002;PMS7003;27693;50.506;30.832;2022-07-18T02:07:05;6.00;5.00;4.20
42002;PMS7003;27693;50.506;30.832;2022-07-18T02:08:07;6.70;6.70;5.70
42002;PMS7003;27693;50.506;30.832;2022-07-18T02:09:09;6.10;6.10;4.90
42002;PMS7003;27693;50.506;30.832;2022-07-18T02:10:13;8.20;7.70;6.00
42002;PMS7003;27693;50.506;30.832;2022-07-18T02:11:17;4.40;4.40;3.70
42002;PMS7003;27693;50.506;30.832;2022-07-18T02:12:19;6.00;6.00;5.00
42002;PMS7003;27693;50.506;30.832;2022-07-18T02:13:22;8.50;6.30;5.90
42002;PMS7003;27693;50.506;30.832;2022-07-18T02:14:24;6.40;6.40;6.00
42002;PMS7003;27693;50.506;30.832;2022-07-18T02:15:26;6.11;5.67;5.33
42002;PMS7003;27693;50.506;30.832;2022-07-18T02:16:29;7.64;6.64;5.91
42002;PMS7003;27693;50.506;30.832;2022-07-18T02:17:32;10.10;7.60;6.50
42002;PMS7003;27693;50.506;30.832;2022-07-18T02:18:35;6.50;6.50;5.90
42002;PMS7003;27693;50.506;30.832;2022-07-18T02:19:40;9.40;7.50;6.60
42002;PMS7003;27693;50.506;30.832;2022-07-18T02:20:42;8.00;7.50;6.50
42002;PMS7003;27693;50.506;30.832;2022-07-18T02:21:44;9.60;8.10;6.70
42002;PMS7003;27693;50.506;30.832;2022-07-18T02:22:47;8.20;7.50;6.30
42002;PMS7003;27693;50.506;30.832;2022-07-18T02:23:49;7.40;7.40;6.30
42002;PMS7003;27693;50.506;30.832;2022-07-18T02:24:51;6.70;6.30;4.70
42002;PMS7003;27693;50.506;30.832;2022-07-18T02:25:54;9.10;7.90;6.10
42002;PMS7003;27693;50.506;30.832;2022-07-18T02:26:57;6.80;5.90;5.10
42002;PMS7003;27693;50.506;30.832;2022-07-18T02:27:59;7.80;6.50;5.30
42002;PMS7003;27693;50.506;30.832;2022-07-18T02:29:01;7.30;6.50;5.70
42002;PMS7003;27693;50.506;30.832;2022-07-18T02:30:04;7.70;6.80;5.70
42002;PMS7003;27693;50.506;30.832;2022-07-18T02:31:08;3.90;3.30;2.30
42002;PMS7003;27693;50.506;30.832;2022-07-18T02:32:11;7.20;6.80;6.40
42002;PMS7003;27693;50.506;30.832;2022-07-18T02:33:13;7.60;6.90;6.00
42002;PMS7003;27693;50.506;30.832;2022-07-18T02:34:16;8.50;7.70;6.40
42002;PMS7003;27693;50.506;30.832;2022-07-18T02:35:20;6.00;6.00;3.70
42002;PMS7003;27693;50.506;30.832;2022-07-18T02:36:23;8.55;7.36;6.73
42002;PMS7003;27693;50.506;30.832;2022-07-18T02:37:25;9.50;8.10;7.00
42002;PMS7003;27693;50.506;30.832;2022-07-18T02:38:27;8.00;7.90;6.80
42002;PMS7003;27693;50.506;30.832;2022-07-18T02:39:29;7.40;6.80;5.70
42002;PMS7003;27693;50.506;30.832;2022-07-18T02:40:32;8.20;6.20;5.40
42002;PMS7003;27693;50.506;30.832;2022-07-18T02:41:34;7.10;6.40;4.90
42002;PMS7003;27693;50.506;30.832;2022-07-18T02:42:36;10.00;7.70;7.40
42002;PMS7003;27693;50.506;30.832;2022-07-18T02:43:39;6.00;6.00;5.70
42002;PMS7003;27693;50.506;30.832;2022-07-18T02:44:41;9.60;7.30;6.20
42002;PMS7003;27693;50.506;30.832;2022-07-18T02:45:43;8.80;7.50;6.10
42002;PMS7003;27693;50.506;30.832;2022-07-18T02:46:46;7.80;7.80;6.50
42002;PMS7003;27693;50.506;30.832;2022-07-18T02:47:48;8.50;7.70;6.80
42002;PMS7003;27693;50.506;30.832;2022-07-18T02:48:50;9.10;8.60;7.10
42002;PMS7003;27693;50.506;30.832;2022-07-18T02:49:53;7.20;7.20;6.10
42002;PMS7003;27693;50.506;30.832;2022-07-18T02:50:56;8.90;8.00;7.00
42002;PMS7003;27693;50.506;30.832;2022-07-18T02:52:00;8.40;8.40;7.10
42002;PMS7003;27693;50.506;30.832;2022-07-18T02:53:13;7.50;7.00;5.90
42002;PMS7003;27693;50.506;30.832;2022-07-18T02:54:15;7.10;7.10;5.60
42002;PMS7003;27693;50.506;30.832;2022-07-18T02:55:18;8.18;7.64;6.45
42002;PMS7003;27693;50.506;30.832;2022-07-18T02:56:20;9.20;7.80;6.40
42002;PMS7003;27693;50.506;30.832;2022-07-18T02:57:22;9.30;7.20;6.00
42002;PMS7003;27693;50.506;30.832;2022-07-18T02:58:25;8.70;8.50;8.00
42002;PMS7003;27693;50.506;30.832;2022-07-18T02:59:27;9.00;7.20;6.30
42002;PMS7003;27693;50.506;30.832;2022-07-18T03:00:31;6.80;6.80;5.50
42002;PMS7003;27693;50.506;30.832;2022-07-18T03:01:33;9.30;6.70;5.90
42002;PMS7003;27693;50.506;30.832;2022-07-18T03:02:36;7.80;7.50;6.20
42002;PMS7003;27693;50.506;30.832;2022-07-18T03:03:39;8.82;7.00;5.91
42002;PMS7003;27693;50.506;30.832;2022-07-18T03:04:41;8.90;7.70;6.40
42002;PMS7003;27693;50.506;30.832;2022-07-18T03:05:43;8.40;7.70;6.30
42002;PMS7003;27693;50.506;30.832;2022-07-18T03:06:45;8.70;7.10;6.10
42002;PMS7003;27693;50.506;30.832;2022-07-18T03:07:49;8.10;8.10;6.50
42002;PMS7003;27693;50.506;30.832;2022-07-18T03:08:51;7.70;7.50;6.30
42002;PMS7003;27693;50.506;30.832;2022-07-18T03:09:53;8.20;8.20;6.90
42002;PMS7003;27693;50.506;30.832;2022-07-18T03:10:55;7.70;7.20;6.10
42002;PMS7003;27693;50.506;30.832;2022-07-18T03:11:57;5.40;4.90;4.50
42002;PMS7003;27693;50.506;30.832;2022-07-18T03:12:59;7.10;7.10;5.70
42002;PMS7003;27693;50.506;30.832;2022-07-18T03:14:01;6.70;6.00;4.80
42002;PMS7003;27693;50.506;30.832;2022-07-18T03:15:04;7.30;7.00;6.30
42002;PMS7003;27693;50.506;30.832;2022-07-18T03:16:08;5.30;4.60;4.60
42002;PMS7003;27693;50.506;30.832;2022-07-18T03:17:10;8.00;7.10;6.10
42002;PMS7003;27693;50.506;30.832;2022-07-18T03:18:12;6.10;6.10;5.70
42002;PMS7003;27693;50.506;30.832;2022-07-18T03:19:15;6.10;6.10;5.20
42002;PMS7003;27693;50.506;30.832;2022-07-18T03:20:18;7.00;7.00;5.55
42002;PMS7003;27693;50.506;30.832;2022-07-18T03:21:22;6.40;6.40;5.20
42002;PMS7003;27693;50.506;30.832;2022-07-18T03:22:24;6.00;6.00;5.10
42002;PMS7003;27693;50.506;30.832;2022-07-18T03:23:26;5.70;5.70;5.00
42002;PMS7003;27693;50.506;30.832;2022-07-18T03:24:29;6.70;6.50;5.20
42002;PMS7003;27693;50.506;30.832;2022-07-18T03:25:32;6.50;6.20;5.30
42002;PMS7003;27693;50.506;30.832;2022-07-18T03:26:35;6.10;5.70;4.80
42002;PMS7003;27693;50.506;30.832;2022-07-18T03:27:37;8.30;6.50;5.50
42002;PMS7003;27693;50.506;30.832;2022-07-18T03:28:39;6.90;6.50;5.40
42002;PMS7003;27693;50.506;30.832;2022-07-18T03:29:41;5.70;4.90;3.70
42002;PMS7003;27693;50.506;30.832;2022-07-18T03:30:44;6.40;4.80;3.80
42002;PMS7003;27693;50.506;30.832;2022-07-18T03:31:46;6.60;6.60;5.90
42002;PMS7003;27693;50.506;30.832;2022-07-18T03:32:48;6.70;6.40;5.50
42002;PMS7003;27693;50.506;30.832;2022-07-18T03:33:50;7.10;6.00;5.50
42002;PMS7003;27693;50.506;30.832;2022-07-18T03:34:52;6.00;5.80;5.20
42002;PMS7003;27693;50.506;30.832;2022-07-18T03:35:54;7.20;6.30;5.00
42002;PMS7003;27693;50.506;30.832;2022-07-18T03:36:57;6.64;5.91;4.91
42002;PMS7003;27693;50.506;30.832;2022-07-18T03:38:00;7.60;6.40;5.70
42002;PMS7003;27693;50.506;30.832;2022-07-18T03:39:03;6.27;5.18;4.82
42002;PMS7003;27693;50.506;30.832;2022-07-18T03:40:07;6.50;6.10;5.30
42002;PMS7003;27693;50.506;30.832;2022-07-18T03:41:10;7.10;6.10;5.10
42002;PMS7003;27693;50.506;30.832;2022-07-18T03:42:13;8.00;5.64;4.91
42002;PMS7003;27693;50.506;30.832;2022-07-18T03:43:15;6.10;5.80;4.60
42002;PMS7003;27693;50.506;30.832;2022-07-18T03:44:17;5.00;4.40;3.50
42002;PMS7003;27693;50.506;30.832;2022-07-18T03:45:20;6.00;4.91;4.64
42002;PMS7003;27693;50.506;30.832;2022-07-18T03:46:24;6.00;6.00;5.00
42002;PMS7003;27693;50.506;30.832;2022-07-18T03:47:27;9.00;6.60;5.40
42002;PMS7003;27693;50.506;30.832;2022-07-18T03:48:29;7.70;6.50;6.00
42002;PMS7003;27693;50.506;30.832;2022-07-18T03:49:31;5.20;2.90;2.00
42002;PMS7003;27693;50.506;30.832;2022-07-18T03:50:33;3.70;3.20;2.80
42002;PMS7003;27693;50.506;30.832;2022-07-18T03:51:35;6.20;5.40;4.30
42002;PMS7003;27693;50.506;30.832;2022-07-18T03:52:37;5.70;5.30;3.70
42002;PMS7003;27693;50.506;30.832;2022-07-18T03:53:40;6.40;5.90;4.70
42002;PMS7003;27693;50.506;30.832;2022-07-18T03:54:42;5.60;5.30;5.00
42002;PMS7003;27693;50.506;30.832;2022-07-18T03:55:44;8.10;6.10;5.10
42002;PMS7003;27693;50.506;30.832;2022-07-18T03:56:46;7.90;6.60;5.20
42002;PMS7003;27693;50.506;30.832;2022-07-18T03:57:48;6.10;5.60;4.70
42002;PMS7003;27693;50.506;30.832;2022-07-18T03:58:51;6.10;5.20;4.40
42002;PMS7003;27693;50.506;30.832;2022-07-18T03:59:53;6.50;4.70;3.80
42002;PMS7003;27693;50.506;30.832;2022-07-18T04:00:56;6.70;5.50;4.70
42002;PMS7003;27693;50.506;30.832;2022-07-18T04:01:58;6.40;5.30;4.90
42002;PMS7003;27693;50.506;30.832;2022-07-18T04:03:00;4.10;3.50;3.10
42002;PMS7003;27693;50.506;30.832;2022-07-18T04:04:04;7.50;7.00;6.50
42002;PMS7003;27693;50.506;30.832;2022-07-18T04:05:07;8.00;6.50;5.80
42002;PMS7003;27693;50.506;30.832;2022-07-18T04:06:10;8.40;6.70;5.90
42002;PMS7003;27693;50.506;30.832;2022-07-18T04:07:12;5.00;4.30;3.80
42002;PMS7003;27693;50.506;30.832;2022-07-18T04:08:14;6.60;5.90;5.00
42002;PMS7003;27693;50.506;30.832;2022-07-18T04:09:17;6.45;5.73;5.18
42002;PMS7003;27693;50.506;30.832;2022-07-18T04:10:21;7.00;6.00;5.10
42002;PMS7003;27693;50.506;30.832;2022-07-18T04:11:23;6.90;6.90;6.00
42002;PMS7003;27693;50.506;30.832;2022-07-18T04:12:26;6.40;5.80;4.90
42002;PMS7003;27693;50.506;30.832;2022-07-18T04:13:28;5.60;4.80;4.10
42002;PMS7003;27693;50.506;30.832;2022-07-18T04:14:31;7.00;6.50;6.10
42002;PMS7003;27693;50.506;30.832;2022-07-18T04:15:33;6.90;6.10;5.80
42002;PMS7003;27693;50.506;30.832;2022-07-18T04:16:37;7.50;6.50;5.80
42002;PMS7003;27693;50.506;30.832;2022-07-18T04:17:39;6.30;6.10;4.90
42002;PMS7003;27693;50.506;30.832;2022-07-18T04:18:41;6.40;6.30;5.40
42002;PMS7003;27693;50.506;30.832;2022-07-18T04:19:43;7.00;6.80;6.00
42002;PMS7003;27693;50.506;30.832;2022-07-18T04:20:46;6.90;5.50;4.80
42002;PMS7003;27693;50.506;30.832;2022-07-18T04:21:48;4.70;4.70;4.20
42002;PMS7003;27693;50.506;30.832;2022-07-18T04:22:53;4.70;4.70;4.30
42002;PMS7003;27693;50.506;30.832;2022-07-18T04:23:57;8.30;7.10;6.20
42002;PMS7003;27693;50.506;30.832;2022-07-18T04:24:59;7.90;7.50;6.30
42002;PMS7003;27693;50.506;30.832;2022-07-18T04:26:01;8.10;7.60;6.60
42002;PMS7003;27693;50.506;30.832;2022-07-18T04:27:04;7.40;6.70;5.30
42002;PMS7003;27693;50.506;30.832;2022-07-18T04:28:07;8.70;8.70;7.30
42002;PMS7003;27693;50.506;30.832;2022-07-18T04:29:11;6.80;6.30;5.60
42002;PMS7003;27693;50.506;30.832;2022-07-18T04:30:15;7.10;6.50;5.20
42002;PMS7003;27693;50.506;30.832;2022-07-18T04:31:19;7.10;6.80;5.90
42002;PMS7003;27693;50.506;30.832;2022-07-18T04:32:21;8.70;7.40;6.50
42002;PMS7003;27693;50.506;30.832;2022-07-18T04:33:24;8.30;7.60;6.70
42002;PMS7003;27693;50.506;30.832;2022-07-18T04:34:26;6.80;6.80;6.10
42002;PMS7003;27693;50.506;30.832;2022-07-18T04:35:28;6.80;6.30;5.10
42002;PMS7003;27693;50.506;30.832;2022-07-18T04:36:30;7.50;6.80;6.00
42002;PMS7003;27693;50.506;30.832;2022-07-18T04:37:32;2.60;1.30;0.40
42002;PMS7003;27693;50.506;30.832;2022-07-18T04:38:35;7.20;7.20;6.20
42002;PMS7003;27693;50.506;30.832;2022-07-18T04:39:37;9.56;7.89;7.00
42002;PMS7003;27693;50.506;30.832;2022-07-18T04:40:40;6.50;6.20;4.90
42002;PMS7003;27693;50.506;30.832;2022-07-18T04:41:43;6.36;5.82;5.18
42002;PMS7003;27693;50.506;30.832;2022-07-18T04:42:45;7.70;6.10;5.40
42002;PMS7003;27693;50.506;30.832;2022-07-18T04:43:47;6.40;6.00;5.40
42002;PMS7003;27693;50.506;30.832;2022-07-18T04:44:49;7.50;5.90;5.10
42002;PMS7003;27693;50.506;30.832;2022-07-18T04:45:52;3.70;3.50;2.70
42002;PMS7003;27693;50.506;30.832;2022-07-18T04:46:54;5.40;5.00;3.90
42002;PMS7003;27693;50.506;30.832;2022-07-18T04:47:57;6.50;5.00;4.60
42002;PMS7003;27693;50.506;30.832;2022-07-18T04:49:00;6.82;6.82;5.73
42002;PMS7003;27693;50.506;30.832;2022-07-18T04:50:02;7.20;6.60;5.50
42002;PMS7003;27693;50.506;30.832;2022-07-18T04:51:06;5.70;5.70;4.90
42002;PMS7003;27693;50.506;30.832;2022-07-18T04:52:08;5.30;3.20;3.00
42002;PMS7003;27693;50.506;30.832;2022-07-18T04:53:10;5.70;5.70;4.80
42002;PMS7003;27693;50.506;30.832;2022-07-18T04:54:13;5.00;5.00;4.20
42002;PMS7003;27693;50.506;30.832;2022-07-18T04:55:16;6.90;6.00;5.10
42002;PMS7003;27693;50.506;30.832;2022-07-18T04:56:20;6.10;5.40;5.00
42002;PMS7003;27693;50.506;30.832;2022-07-18T04:57:23;6.09;5.27;4.73
42002;PMS7003;27693;50.506;30.832;2022-07-18T04:58:25;6.90;6.50;5.40
42002;PMS7003;27693;50.506;30.832;2022-07-18T04:59:27;5.70;5.50;4.40
42002;PMS7003;27693;50.506;30.832;2022-07-18T05:00:31;3.80;3.70;2.90
42002;PMS7003;27693;50.506;30.832;2022-07-18T05:01:33;5.30;4.50;3.70
42002;PMS7003;27693;50.506;30.832;2022-07-18T05:02:38;5.80;5.60;4.90
42002;PMS7003;27693;50.506;30.832;2022-07-18T05:03:40;4.30;4.10;3.50
42002;PMS7003;27693;50.506;30.832;2022-07-18T05:04:42;4.90;4.90;4.50
42002;PMS7003;27693;50.506;30.832;2022-07-18T05:05:44;8.40;5.80;4.50
42002;PMS7003;27693;50.506;30.832;2022-07-18T05:06:47;5.00;5.00;4.36
42002;PMS7003;27693;50.506;30.832;2022-07-18T05:07:50;6.80;5.00;4.60
42002;PMS7003;27693;50.506;30.832;2022-07-18T05:08:53;6.40;5.40;5.10
42002;PMS7003;27693;50.506;30.832;2022-07-18T05:09:55;6.30;5.50;4.50
42002;PMS7003;27693;50.506;30.832;2022-07-18T05:10:57;4.70;4.20;4.10
42002;PMS7003;27693;50.506;30.832;2022-07-18T05:11:59;6.80;6.10;5.30
42002;PMS7003;27693;50.506;30.832;2022-07-18T05:13:02;6.50;5.30;4.60
42002;PMS7003;27693;50.506;30.832;2022-07-18T05:14:04;7.40;5.40;5.00
42002;PMS7003;27693;50.506;30.832;2022-07-18T05:15:08;5.40;5.10;4.40
42002;PMS7003;27693;50.506;30.832;2022-07-18T05:16:12;4.90;4.30;3.80
42002;PMS7003;27693;50.506;30.832;2022-07-18T05:17:14;5.00;5.00;4.10
42002;PMS7003;27693;50.506;30.832;2022-07-18T05:18:17;5.40;4.40;4.20
42002;PMS7003;27693;50.506;30.832;2022-07-18T05:19:20;4.40;4.40;3.80
42002;PMS7003;27693;50.506;30.832;2022-07-18T05:20:24;5.90;5.30;5.10
42002;PMS7003;27693;50.506;30.832;2022-07-18T05:21:28;5.20;4.60;3.90
42002;PMS7003;27693;50.506;30.832;2022-07-18T05:22:32;5.10;5.10;4.50
42002;PMS7003;27693;50.506;30.832;2022-07-18T05:23:34;5.00;3.90;3.30
42002;PMS7003;27693;50.506;30.832;2022-07-18T05:24:36;5.50;4.90;4.20
42002;PMS7003;27693;50.506;30.832;2022-07-18T05:25:39;4.80;4.20;3.50
42002;PMS7003;27693;50.506;30.832;2022-07-18T05:26:42;3.70;2.50;2.20
42002;PMS7003;27693;50.506;30.832;2022-07-18T05:27:44;3.90;3.90;3.30
42002;PMS7003;27693;50.506;30.832;2022-07-18T05:28:46;4.60;4.00;3.40
42002;PMS7003;27693;50.506;30.832;2022-07-18T05:29:48;4.20;4.20;3.70
42002;PMS7003;27693;50.506;30.832;2022-07-18T05:30:51;5.70;4.60;3.80
42002;PMS7003;27693;50.506;30.832;2022-07-18T05:31:53;4.10;4.10;3.50
42002;PMS7003;27693;50.506;30.832;2022-07-18T05:32:56;6.55;4.27;4.18
42002;PMS7003;27693;50.506;30.832;2022-07-18T05:33:58;4.50;4.50;4.20
42002;PMS7003;27693;50.506;30.832;2022-07-18T05:35:00;4.90;4.90;4.10
42002;PMS7003;27693;50.506;30.832;2022-07-18T05:36:04;6.00;5.50;4.80
42002;PMS7003;27693;50.506;30.832;2022-07-18T05:37:07;4.00;4.00;3.40
42002;PMS7003;27693;50.506;30.832;2022-07-18T05:38:09;5.50;4.70;4.10
42002;PMS7003;27693;50.506;30.832;2022-07-18T05:39:11;4.20;4.00;3.40
42002;PMS7003;27693;50.506;30.832;2022-07-18T05:40:14;6.80;5.00;5.00
42002;PMS7003;27693;50.506;30.832;2022-07-18T05:41:16;3.10;2.80;2.20
42002;PMS7003;27693;50.506;30.832;2022-07-18T05:42:19;4.70;4.70;3.70
42002;PMS7003;27693;50.506;30.832;2022-07-18T05:43:25;6.00;4.70;4.30
42002;PMS7003;27693;50.506;30.832;2022-07-18T05:44:27;4.40;4.40;3.80
42002;PMS7003;27693;50.506;30.832;2022-07-18T05:45:30;4.00;3.40;2.80
42002;PMS7003;27693;50.506;30.832;2022-07-18T05:46:33;4.70;4.00;3.60
42002;PMS7003;27693;50.506;30.832;2022-07-18T05:47:36;5.10;5.10;4.50
42002;PMS7003;27693;50.506;30.832;2022-07-18T05:48:40;5.50;5.30;5.00
42002;PMS7003;27693;50.506;30.832;2022-07-18T05:49:42;5.50;5.30;4.50
42002;PMS7003;27693;50.506;30.832;2022-07-18T05:50:45;4.70;4.60;4.20
42002;PMS7003;27693;50.506;30.832;2022-07-18T05:51:46;4.60;4.30;3.50
42002;PMS7003;27693;50.506;30.832;2022-07-18T05:52:52;3.80;3.80;3.50
42002;PMS7003;27693;50.506;30.832;2022-07-18T05:53:54;4.10;3.20;2.80
42002;PMS7003;27693;50.506;30.832;2022-07-18T05:54:56;4.30;4.30;3.50
42002;PMS7003;27693;50.506;30.832;2022-07-18T05:55:58;4.90;3.80;3.60
42002;PMS7003;27693;50.506;30.832;2022-07-18T05:57:04;3.70;3.70;3.70
42002;PMS7003;27693;50.506;30.832;2022-07-18T05:58:06;4.60;4.10;3.90
42002;PMS7003;27693;50.506;30.832;2022-07-18T05:59:10;7.70;4.10;3.80
42002;PMS7003;27693;50.506;30.832;2022-07-18T06:00:13;6.10;5.00;4.00
42002;PMS7003;27693;50.506;30.832;2022-07-18T06:01:16;4.27;4.27;3.91